sensor_id;sensor_type;location;lat;lon;timestamp;temperature;humidity
37300;DHT22;23184;51.902;12.836;2023-01-15T00:00:50;8.60;99.90
37300;DHT22;23184;51.902;12.836;2023-01-15T00:03:16;8.80;99.90
37300;DHT22;23184;51.902;12.836;2023-01-15T00:05:42;8.70;99.90
37300;DHT22;23184;51.902;12.836;2023-01-15T00:08:07;8.70;99.90
37300;DHT22;23184;51.902;12.836;2023-01-15T00:10:34;8.80;99.90
37300;DHT22;23184;51.902;12.836;2023-01-15T00:13:00;8.80;99.90
37300;DHT22;23184;51.902;12.836;2023-01-15T00:15:25;8.80;99.90
37300;DHT22;23184;51.902;12.836;2023-01-15T00:17:51;8.90;99.90
37300;DHT22;23184;51.902;12.836;2023-01-15T00:20:16;8.90;99.90
37300;DHT22;23184;51.902;12.836;2023-01-15T00:22:42;8.90;99.90
37300;DHT22;23184;51.902;12.836;2023-01-15T00:25:09;9.00;99.90
37300;DHT22;23184;51.902;12.836;2023-01-15T00:27:53;9.10;99.90
37300;DHT22;23184;51.902;12.836;2023-01-15T00:30:18;9.10;99.90
37300;DHT22;23184;51.902;12.836;2023-01-15T00:32:44;9.20;99.90
37300;DHT22;23184;51.902;12.836;2023-01-15T00:35:16;9.10;99.90
37300;DHT22;23184;51.902;12.836;2023-01-15T00:37:42;9.20;99.90
37300;DHT22;23184;51.902;12.836;2023-01-15T00:40:08;9.20;99.90
37300;DHT22;23184;51.902;12.836;2023-01-15T00:42:33;9.10;99.90
37300;DHT22;23184;51.902;12.836;2023-01-15T00:44:59;9.10;99.90
37300;DHT22;23184;51.902;12.836;2023-01-15T00:47:31;9.10;99.90
37300;DHT22;23184;51.902;12.836;2023-01-15T00:49:56;9.10;99.90
37300;DHT22;23184;51.902;12.836;2023-01-15T00:52:22;9.10;99.90
37300;DHT22;23184;51.902;12.836;2023-01-15T00:54:47;9.30;99.90
37300;DHT22;23184;51.902;12.836;2023-01-15T00:57:13;9.10;99.90
37300;DHT22;23184;51.902;12.836;2023-01-15T00:59:39;9.10;99.90
37300;DHT22;23184;51.902;12.836;2023-01-15T01:02:05;9.00;99.90
37300;DHT22;23184;51.902;12.836;2023-01-15T01:04:30;9.20;99.90
37300;DHT22;23184;51.902;12.836;2023-01-15T01:06:56;9.30;99.90
37300;DHT22;23184;51.902;12.836;2023-01-15T01:09:21;9.40;99.90
37300;DHT22;23184;51.902;12.836;2023-01-15T01:11:48;9.30;99.90
37300;DHT22;23184;51.902;12.836;2023-01-15T01:14:14;9.40;99.90
37300;DHT22;23184;51.902;12.836;2023-01-15T01:16:40;9.50;99.90
37300;DHT22;23184;51.902;12.836;2023-01-15T01:19:14;9.30;99.90
37300;DHT22;23184;51.902;12.836;2023-01-15T01:21:41;9.30;99.90
37300;DHT22;23184;51.902;12.836;2023-01-15T01:24:09;9.20;99.90
37300;DHT22;23184;51.902;12.836;2023-01-15T01:26:35;9.30;99.90
37300;DHT22;23184;51.902;12.836;2023-01-15T01:29:01;9.20;99.90
37300;DHT22;23184;51.902;12.836;2023-01-15T01:31:27;9.10;99.90
37300;DHT22;23184;51.902;12.836;2023-01-15T01:33:54;8.90;99.90
37300;DHT22;23184;51.902;12.836;2023-01-15T01:36:25;8.80;99.90
37300;DHT22;23184;51.902;12.836;2023-01-15T01:38:51;8.90;99.90
37300;DHT22;23184;51.902;12.836;2023-01-15T01:41:17;8.90;99.90
37300;DHT22;23184;51.902;12.836;2023-01-15T01:46:17;9.00;99.90
37300;DHT22;23184;51.902;12.836;2023-01-15T01:48:43;9.00;99.90
37300;DHT22;23184;51.902;12.836;2023-01-15T01:51:09;9.10;99.90
37300;DHT22;23184;51.902;12.836;2023-01-15T01:53:36;9.00;99.90
37300;DHT22;23184;51.902;12.836;2023-01-15T01:56:03;9.10;99.90
37300;DHT22;23184;51.902;12.836;2023-01-15T01:58:30;9.10;99.90
37300;DHT22;23184;51.902;12.836;2023-01-15T02:00:57;9.00;99.90
37300;DHT22;23184;51.902;12.836;2023-01-15T02:03:29;8.90;99.90
37300;DHT22;23184;51.902;12.836;2023-01-15T02:05:58;9.10;99.90
37300;DHT22;23184;51.902;12.836;2023-01-15T02:08:25;9.00;99.90
37300;DHT22;23184;51.902;12.836;2023-01-15T02:10:54;8.90;99.90
37300;DHT22;23184;51.902;12.836;2023-01-15T02:16:02;8.80;99.90
37300;DHT22;23184;51.902;12.836;2023-01-15T02:18:37;8.90;99.90
37300;DHT22;23184;51.902;12.836;2023-01-15T02:27:04;9.00;99.90
37300;DHT22;23184;51.902;12.836;2023-01-15T02:32:27;9.00;99.90
37300;DHT22;23184;51.902;12.836;2023-01-15T02:34:57;9.10;99.90
37300;DHT22;23184;51.902;12.836;2023-01-15T02:37:27;9.00;99.90
37300;DHT22;23184;51.902;12.836;2023-01-15T02:39:55;8.90;99.90
37300;DHT22;23184;51.902;12.836;2023-01-15T02:42:22;8.90;99.90
37300;DHT22;23184;51.902;12.836;2023-01-15T02:44:51;9.00;99.90
37300;DHT22;23184;51.902;12.836;2023-01-15T02:47:21;9.00;99.90
37300;DHT22;23184;51.902;12.836;2023-01-15T02:49:49;9.00;99.90
37300;DHT22;23184;51.902;12.836;2023-01-15T02:52:21;8.90;99.90
37300;DHT22;23184;51.902;12.836;2023-01-15T02:54:54;8.90;99.90
37300;DHT22;23184;51.902;12.836;2023-01-15T02:57:22;8.90;99.90
37300;DHT22;23184;51.902;12.836;2023-01-15T02:59:51;8.90;99.90
37300;DHT22;23184;51.902;12.836;2023-01-15T03:02:20;9.00;99.90
37300;DHT22;23184;51.902;12.836;2023-01-15T03:04:54;9.00;99.90
37300;DHT22;23184;51.902;12.836;2023-01-15T03:07:30;8.90;99.90
37300;DHT22;23184;51.902;12.836;2023-01-15T03:09:56;8.90;99.90
37300;DHT22;23184;51.902;12.836;2023-01-15T03:12:43;8.80;99.90
37300;DHT22;23184;51.902;12.836;2023-01-15T03:18:36;8.60;99.90
37300;DHT22;23184;51.902;12.836;2023-01-15T03:21:07;8.50;99.90
37300;DHT22;23184;51.902;12.836;2023-01-15T03:23:37;8.50;99.90
37300;DHT22;23184;51.902;12.836;2023-01-15T03:26:04;8.50;99.90
37300;DHT22;23184;51.902;12.836;2023-01-15T03:28:32;8.50;99.90
37300;DHT22;23184;51.902;12.836;2023-01-15T03:30:58;8.60;99.90
37300;DHT22;23184;51.902;12.836;2023-01-15T03:33:24;8.60;99.90
37300;DHT22;23184;51.902;12.836;2023-01-15T03:35:56;8.60;99.90
37300;DHT22;23184;51.902;12.836;2023-01-15T03:38:31;8.60;99.90
37300;DHT22;23184;51.902;12.836;2023-01-15T03:41:13;8.60;99.90
37300;DHT22;23184;51.902;12.836;2023-01-15T03:49:46;8.50;99.90
37300;DHT22;23184;51.902;12.836;2023-01-15T03:57:37;8.40;99.90
37300;DHT22;23184;51.902;12.836;2023-01-15T04:00:43;8.40;99.90
37300;DHT22;23184;51.902;12.836;2023-01-15T04:03:12;8.40;99.90
37300;DHT22;23184;51.902;12.836;2023-01-15T04:05:39;8.50;99.90
37300;DHT22;23184;51.902;12.836;2023-01-15T04:08:06;8.50;99.90
37300;DHT22;23184;51.902;12.836;2023-01-15T04:10:32;8.50;99.90
37300;DHT22;23184;51.902;12.836;2023-01-15T04:12:58;8.50;99.90
37300;DHT22;23184;51.902;12.836;2023-01-15T04:15:23;8.50;99.90
37300;DHT22;23184;51.902;12.836;2023-01-15T04:17:49;8.50;99.90
37300;DHT22;23184;51.902;12.836;2023-01-15T04:20:14;8.40;99.90
37300;DHT22;23184;51.902;12.836;2023-01-15T04:22:40;8.40;99.90
37300;DHT22;23184;51.902;12.836;2023-01-15T04:25:06;8.40;99.90
37300;DHT22;23184;51.902;12.836;2023-01-15T04:27:32;8.10;99.90
37300;DHT22;23184;51.902;12.836;2023-01-15T04:29:57;8.00;99.90
37300;DHT22;23184;51.902;12.836;2023-01-15T04:32:23;7.70;99.90
37300;DHT22;23184;51.902;12.836;2023-01-15T04:34:48;7.40;99.90
37300;DHT22;23184;51.902;12.836;2023-01-15T04:37:15;7.30;99.90
37300;DHT22;23184;51.902;12.836;2023-01-15T04:39:41;7.20;99.90
37300;DHT22;23184;51.902;12.836;2023-01-15T04:42:11;7.10;99.90
37300;DHT22;23184;51.902;12.836;2023-01-15T04:44:55;7.00;99.90
37300;DHT22;23184;51.902;12.836;2023-01-15T04:47:21;6.90;99.90
37300;DHT22;23184;51.902;12.836;2023-01-15T04:49:46;6.80;99.90
37300;DHT22;23184;51.902;12.836;2023-01-15T04:52:12;6.70;99.90
37300;DHT22;23184;51.902;12.836;2023-01-15T04:54:38;6.60;99.90
37300;DHT22;23184;51.902;12.836;2023-01-15T04:57:04;6.50;99.90
37300;DHT22;23184;51.902;12.836;2023-01-15T04:59:29;6.30;99.90
37300;DHT22;23184;51.902;12.836;2023-01-15T05:01:55;6.20;99.90
37300;DHT22;23184;51.902;12.836;2023-01-15T05:04:21;6.10;99.90
37300;DHT22;23184;51.902;12.836;2023-01-15T05:06:46;6.10;99.90
37300;DHT22;23184;51.902;12.836;2023-01-15T05:09:12;6.10;99.90
37300;DHT22;23184;51.902;12.836;2023-01-15T05:11:38;5.90;99.90
37300;DHT22;23184;51.902;12.836;2023-01-15T05:14:05;5.80;99.90
37300;DHT22;23184;51.902;12.836;2023-01-15T05:16:31;5.80;99.90
37300;DHT22;23184;51.902;12.836;2023-01-15T05:18:59;5.70;99.90
37300;DHT22;23184;51.902;12.836;2023-01-15T05:21:32;5.70;99.90
37300;DHT22;23184;51.902;12.836;2023-01-15T05:23:58;5.60;99.90
37300;DHT22;23184;51.902;12.836;2023-01-15T05:26:29;5.60;99.90
37300;DHT22;23184;51.902;12.836;2023-01-15T05:28:56;5.50;99.90
37300;DHT22;23184;51.902;12.836;2023-01-15T05:31:23;5.60;99.90
37300;DHT22;23184;51.902;12.836;2023-01-15T05:33:49;5.50;99.90
37300;DHT22;23184;51.902;12.836;2023-01-15T05:36:17;5.50;99.90
37300;DHT22;23184;51.902;12.836;2023-01-15T05:38:43;5.50;99.90
37300;DHT22;23184;51.902;12.836;2023-01-15T05:41:14;5.50;99.90
37300;DHT22;23184;51.902;12.836;2023-01-15T05:44:00;5.50;99.90
37300;DHT22;23184;51.902;12.836;2023-01-15T05:46:26;5.50;99.90
37300;DHT22;23184;51.902;12.836;2023-01-15T05:48:52;5.50;99.90
37300;DHT22;23184;51.902;12.836;2023-01-15T05:51:17;5.40;99.90
37300;DHT22;23184;51.902;12.836;2023-01-15T05:53:43;5.40;99.90
37300;DHT22;23184;51.902;12.836;2023-01-15T05:56:08;5.40;99.90
37300;DHT22;23184;51.902;12.836;2023-01-15T05:58:34;5.40;99.90
37300;DHT22;23184;51.902;12.836;2023-01-15T06:01:00;5.40;99.90
37300;DHT22;23184;51.902;12.836;2023-01-15T06:03:26;5.40;99.90
37300;DHT22;23184;51.902;12.836;2023-01-15T06:05:55;5.40;99.90
37300;DHT22;23184;51.902;12.836;2023-01-15T06:08:22;5.30;99.90
37300;DHT22;23184;51.902;12.836;2023-01-15T06:10:47;5.30;99.90
37300;DHT22;23184;51.902;12.836;2023-01-15T06:13:14;5.20;99.90
37300;DHT22;23184;51.902;12.836;2023-01-15T06:15:40;5.20;99.90
37300;DHT22;23184;51.902;12.836;2023-01-15T06:18:06;5.20;99.90
37300;DHT22;23184;51.902;12.836;2023-01-15T06:20:34;5.20;99.90
37300;DHT22;23184;51.902;12.836;2023-01-15T06:23:00;5.20;99.90
37300;DHT22;23184;51.902;12.836;2023-01-15T06:25:25;5.10;99.90
37300;DHT22;23184;51.902;12.836;2023-01-15T06:27:51;5.10;99.90
37300;DHT22;23184;51.902;12.836;2023-01-15T06:30:17;5.10;99.90
37300;DHT22;23184;51.902;12.836;2023-01-15T06:32:43;5.10;99.90
37300;DHT22;23184;51.902;12.836;2023-01-15T06:35:09;5.00;99.90
37300;DHT22;23184;51.902;12.836;2023-01-15T06:37:34;5.00;99.90
37300;DHT22;23184;51.902;12.836;2023-01-15T06:40:00;5.00;99.90
37300;DHT22;23184;51.902;12.836;2023-01-15T06:42:25;5.00;99.90
37300;DHT22;23184;51.902;12.836;2023-01-15T06:45:09;5.00;99.90
37300;DHT22;23184;51.902;12.836;2023-01-15T06:47:54;4.90;99.90
37300;DHT22;23184;51.902;12.836;2023-01-15T06:50:20;4.90;99.90
37300;DHT22;23184;51.902;12.836;2023-01-15T06:52:45;5.00;99.90
37300;DHT22;23184;51.902;12.836;2023-01-15T06:55:11;5.00;99.90
37300;DHT22;23184;51.902;12.836;2023-01-15T06:57:40;5.00;99.90
37300;DHT22;23184;51.902;12.836;2023-01-15T07:00:07;4.90;99.90
37300;DHT22;23184;51.902;12.836;2023-01-15T07:02:33;4.90;99.90
37300;DHT22;23184;51.902;12.836;2023-01-15T07:04:58;4.90;99.90
37300;DHT22;23184;51.902;12.836;2023-01-15T07:07:26;5.00;99.90
37300;DHT22;23184;51.902;12.836;2023-01-15T07:09:52;4.90;99.90
37300;DHT22;23184;51.902;12.836;2023-01-15T07:12:18;4.90;99.90
37300;DHT22;23184;51.902;12.836;2023-01-15T07:14:43;4.90;99.90
37300;DHT22;23184;51.902;12.836;2023-01-15T07:17:09;4.90;99.90
37300;DHT22;23184;51.902;12.836;2023-01-15T07:19:35;4.90;99.90
37300;DHT22;23184;51.902;12.836;2023-01-15T07:22:01;4.90;99.90
37300;DHT22;23184;51.902;12.836;2023-01-15T07:24:26;5.00;99.90
37300;DHT22;23184;51.902;12.836;2023-01-15T07:26:52;5.00;99.90
37300;DHT22;23184;51.902;12.836;2023-01-15T07:29:17;5.00;99.90
37300;DHT22;23184;51.902;12.836;2023-01-15T07:31:43;5.00;99.90
37300;DHT22;23184;51.902;12.836;2023-01-15T07:34:08;5.00;99.90
37300;DHT22;23184;51.902;12.836;2023-01-15T07:36:34;5.10;99.90
37300;DHT22;23184;51.902;12.836;2023-01-15T07:39:02;5.00;99.90
37300;DHT22;23184;51.902;12.836;2023-01-15T07:41:28;5.00;99.90
37300;DHT22;23184;51.902;12.836;2023-01-15T07:44:12;5.00;99.90
37300;DHT22;23184;51.902;12.836;2023-01-15T07:46:57;5.00;99.90
37300;DHT22;23184;51.902;12.836;2023-01-15T07:49:42;5.00;99.90
37300;DHT22;23184;51.902;12.836;2023-01-15T07:52:15;5.00;99.90
37300;DHT22;23184;51.902;12.836;2023-01-15T07:54:41;5.00;99.90
37300;DHT22;23184;51.902;12.836;2023-01-15T07:57:06;5.00;99.90
37300;DHT22;23184;51.902;12.836;2023-01-15T07:59:32;5.10;99.90
37300;DHT22;23184;51.902;12.836;2023-01-15T08:01:58;5.10;99.90
37300;DHT22;23184;51.902;12.836;2023-01-15T08:04:23;5.10;99.90
37300;DHT22;23184;51.902;12.836;2023-01-15T08:06:49;5.10;99.90
37300;DHT22;23184;51.902;12.836;2023-01-15T08:09:14;5.20;99.90
37300;DHT22;23184;51.902;12.836;2023-01-15T08:11:40;5.20;99.90
37300;DHT22;23184;51.902;12.836;2023-01-15T08:14:24;5.30;99.90
37300;DHT22;23184;51.902;12.836;2023-01-15T08:17:07;5.30;99.90
37300;DHT22;23184;51.902;12.836;2023-01-15T08:19:34;5.40;99.90
37300;DHT22;23184;51.902;12.836;2023-01-15T08:22:00;5.50;99.90
37300;DHT22;23184;51.902;12.836;2023-01-15T08:24:26;5.50;99.90
37300;DHT22;23184;51.902;12.836;2023-01-15T08:26:52;5.50;99.90
37300;DHT22;23184;51.902;12.836;2023-01-15T08:29:18;5.60;99.90
37300;DHT22;23184;51.902;12.836;2023-01-15T08:31:44;5.50;99.90
37300;DHT22;23184;51.902;12.836;2023-01-15T08:34:09;5.60;99.90
37300;DHT22;23184;51.902;12.836;2023-01-15T08:36:35;5.50;99.90
37300;DHT22;23184;51.902;12.836;2023-01-15T08:39:01;5.50;99.90
37300;DHT22;23184;51.902;12.836;2023-01-15T08:41:27;5.60;99.90
37300;DHT22;23184;51.902;12.836;2023-01-15T08:43:52;5.60;99.90
37300;DHT22;23184;51.902;12.836;2023-01-15T08:46:18;5.60;99.90
37300;DHT22;23184;51.902;12.836;2023-01-15T08:48:43;5.60;99.90
37300;DHT22;23184;51.902;12.836;2023-01-15T08:51:10;5.70;99.90
37300;DHT22;23184;51.902;12.836;2023-01-15T08:53:37;5.70;99.90
37300;DHT22;23184;51.902;12.836;2023-01-15T08:56:03;5.70;99.90
37300;DHT22;23184;51.902;12.836;2023-01-15T08:58:30;5.80;99.90
37300;DHT22;23184;51.902;12.836;2023-01-15T09:01:03;5.80;99.90
37300;DHT22;23184;51.902;12.836;2023-01-15T09:03:30;5.80;99.90
37300;DHT22;23184;51.902;12.836;2023-01-15T09:05:58;5.80;99.90
37300;DHT22;23184;51.902;12.836;2023-01-15T09:08:24;5.80;99.90
37300;DHT22;23184;51.902;12.836;2023-01-15T09:10:50;5.90;99.90
37300;DHT22;23184;51.902;12.836;2023-01-15T09:13:15;5.90;99.90
37300;DHT22;23184;51.902;12.836;2023-01-15T09:15:41;6.00;99.90
37300;DHT22;23184;51.902;12.836;2023-01-15T09:18:06;5.90;99.90
37300;DHT22;23184;51.902;12.836;2023-01-15T09:20:34;6.00;99.90
37300;DHT22;23184;51.902;12.836;2023-01-15T09:23:00;6.00;99.90
37300;DHT22;23184;51.902;12.836;2023-01-15T09:25:25;6.00;99.90
37300;DHT22;23184;51.902;12.836;2023-01-15T09:27:54;6.00;99.90
37300;DHT22;23184;51.902;12.836;2023-01-15T09:30:21;6.10;99.90
37300;DHT22;23184;51.902;12.836;2023-01-15T09:32:47;6.10;99.90
37300;DHT22;23184;51.902;12.836;2023-01-15T09:35:12;6.10;99.90
37300;DHT22;23184;51.902;12.836;2023-01-15T09:37:38;6.10;99.90
37300;DHT22;23184;51.902;12.836;2023-01-15T09:40:05;6.10;99.90
37300;DHT22;23184;51.902;12.836;2023-01-15T09:42:45;6.20;99.90
37300;DHT22;23184;51.902;12.836;2023-01-15T09:45:25;6.20;99.90
37300;DHT22;23184;51.902;12.836;2023-01-15T09:48:03;6.20;99.90
37300;DHT22;23184;51.902;12.836;2023-01-15T09:51:17;6.20;99.90
37300;DHT22;23184;51.902;12.836;2023-01-15T09:56:33;6.20;99.90
37300;DHT22;23184;51.902;12.836;2023-01-15T09:59:05;6.20;99.90
37300;DHT22;23184;51.902;12.836;2023-01-15T10:01:35;6.20;99.90
37300;DHT22;23184;51.902;12.836;2023-01-15T10:06:55;6.30;99.90
37300;DHT22;23184;51.902;12.836;2023-01-15T10:09:28;6.30;99.90
37300;DHT22;23184;51.902;12.836;2023-01-15T10:12:05;6.30;99.90
37300;DHT22;23184;51.902;12.836;2023-01-15T10:17:39;6.30;99.90
37300;DHT22;23184;51.902;12.836;2023-01-15T10:25:45;6.30;99.90
37300;DHT22;23184;51.902;12.836;2023-01-15T10:28:30;6.30;99.90
37300;DHT22;23184;51.902;12.836;2023-01-15T10:31:01;6.40;99.90
37300;DHT22;23184;51.902;12.836;2023-01-15T10:36:28;6.30;99.90
37300;DHT22;23184;51.902;12.836;2023-01-15T10:39:13;6.30;99.90
37300;DHT22;23184;51.902;12.836;2023-01-15T10:44:42;6.20;99.90
37300;DHT22;23184;51.902;12.836;2023-01-15T10:47:14;6.20;99.90
37300;DHT22;23184;51.902;12.836;2023-01-15T10:49:42;6.20;99.90
37300;DHT22;23184;51.902;12.836;2023-01-15T10:54:48;6.20;99.90
37300;DHT22;23184;51.902;12.836;2023-01-15T10:57:23;6.30;99.90
37300;DHT22;23184;51.902;12.836;2023-01-15T11:00:00;6.30;99.90
37300;DHT22;23184;51.902;12.836;2023-01-15T11:02:48;6.30;99.90
37300;DHT22;23184;51.902;12.836;2023-01-15T11:05:16;6.40;99.90
37300;DHT22;23184;51.902;12.836;2023-01-15T11:07:48;6.40;99.90
37300;DHT22;23184;51.902;12.836;2023-01-15T11:10:17;6.40;99.90
37300;DHT22;23184;51.902;12.836;2023-01-15T11:12:55;6.40;99.90
37300;DHT22;23184;51.902;12.836;2023-01-15T11:15:44;6.40;99.90
37300;DHT22;23184;51.902;12.836;2023-01-15T11:18:34;6.40;99.90
37300;DHT22;23184;51.902;12.836;2023-01-15T11:21:21;6.40;99.90
37300;DHT22;23184;51.902;12.836;2023-01-15T11:23:48;6.40;99.90
37300;DHT22;23184;51.902;12.836;2023-01-15T11:26:23;6.40;99.90
37300;DHT22;23184;51.902;12.836;2023-01-15T11:28:50;6.40;99.90
37300;DHT22;23184;51.902;12.836;2023-01-15T11:31:16;6.50;99.90
37300;DHT22;23184;51.902;12.836;2023-01-15T11:33:58;6.50;99.90
37300;DHT22;23184;51.902;12.836;2023-01-15T11:36:25;6.50;99.90
37300;DHT22;23184;51.902;12.836;2023-01-15T11:38:51;6.50;99.90
37300;DHT22;23184;51.902;12.836;2023-01-15T11:41:23;6.50;99.90
37300;DHT22;23184;51.902;12.836;2023-01-15T11:44:10;6.50;99.90
37300;DHT22;23184;51.902;12.836;2023-01-15T11:46:54;6.50;99.90
37300;DHT22;23184;51.902;12.836;2023-01-15T11:49:53;6.60;99.90
37300;DHT22;23184;51.902;12.836;2023-01-15T11:52:42;6.60;99.90
37300;DHT22;23184;51.902;12.836;2023-01-15T11:55:12;6.60;99.90
37300;DHT22;23184;51.902;12.836;2023-01-15T11:57:39;6.60;99.90
37300;DHT22;23184;51.902;12.836;2023-01-15T12:00:06;6.50;99.90
37300;DHT22;23184;51.902;12.836;2023-01-15T12:02:36;6.60;99.90
37300;DHT22;23184;51.902;12.836;2023-01-15T12:05:17;6.60;99.90
37300;DHT22;23184;51.902;12.836;2023-01-15T12:07:44;6.60;99.90
37300;DHT22;23184;51.902;12.836;2023-01-15T12:10:21;6.60;99.90
37300;DHT22;23184;51.902;12.836;2023-01-15T12:16:06;6.70;99.90
37300;DHT22;23184;51.902;12.836;2023-01-15T12:18:55;6.70;99.90
37300;DHT22;23184;51.902;12.836;2023-01-15T12:30:02;6.60;99.90
37300;DHT22;23184;51.902;12.836;2023-01-15T12:32:37;6.60;99.90
37300;DHT22;23184;51.902;12.836;2023-01-15T12:35:31;6.60;99.90
37300;DHT22;23184;51.902;12.836;2023-01-15T12:38:07;6.60;99.90
37300;DHT22;23184;51.902;12.836;2023-01-15T12:40:50;6.60;99.90
37300;DHT22;23184;51.902;12.836;2023-01-15T12:43:23;6.60;99.90
37300;DHT22;23184;51.902;12.836;2023-01-15T12:46:13;6.60;99.90
37300;DHT22;23184;51.902;12.836;2023-01-15T12:48:51;6.70;99.90
37300;DHT22;23184;51.902;12.836;2023-01-15T12:51:25;6.60;99.90
37300;DHT22;23184;51.902;12.836;2023-01-15T12:54:00;6.60;99.90
37300;DHT22;23184;51.902;12.836;2023-01-15T12:56:46;6.60;99.90
37300;DHT22;23184;51.902;12.836;2023-01-15T12:59:23;6.60;99.90
37300;DHT22;23184;51.902;12.836;2023-01-15T13:02:11;6.60;99.90
37300;DHT22;23184;51.902;12.836;2023-01-15T13:04:48;6.60;99.90
37300;DHT22;23184;51.902;12.836;2023-01-15T13:07:24;6.60;99.90
37300;DHT22;23184;51.902;12.836;2023-01-15T13:09:59;6.50;99.90
37300;DHT22;23184;51.902;12.836;2023-01-15T13:12:28;6.50;99.90
37300;DHT22;23184;51.902;12.836;2023-01-15T13:14:54;6.50;99.90
37300;DHT22;23184;51.902;12.836;2023-01-15T13:17:35;6.60;99.90
37300;DHT22;23184;51.902;12.836;2023-01-15T13:31:33;6.50;99.90
37300;DHT22;23184;51.902;12.836;2023-01-15T13:34:06;6.40;99.90
37300;DHT22;23184;51.902;12.836;2023-01-15T13:36:43;6.30;99.90
37300;DHT22;23184;51.902;12.836;2023-01-15T13:39:16;6.20;99.90
37300;DHT22;23184;51.902;12.836;2023-01-15T13:41:47;6.20;99.90
37300;DHT22;23184;51.902;12.836;2023-01-15T13:44:35;6.20;99.90
37300;DHT22;23184;51.902;12.836;2023-01-15T13:47:05;6.20;99.90
37300;DHT22;23184;51.902;12.836;2023-01-15T13:49:35;6.20;99.90
37300;DHT22;23184;51.902;12.836;2023-01-15T13:52:03;6.30;99.90
37300;DHT22;23184;51.902;12.836;2023-01-15T13:54:34;6.30;99.90
37300;DHT22;23184;51.902;12.836;2023-01-15T13:57:33;6.40;99.90
37300;DHT22;23184;51.902;12.836;2023-01-15T13:59:59;6.20;99.90
37300;DHT22;23184;51.902;12.836;2023-01-15T14:02:28;6.10;99.90
37300;DHT22;23184;51.902;12.836;2023-01-15T14:04:55;6.10;99.90
37300;DHT22;23184;51.902;12.836;2023-01-15T14:07:33;6.00;99.90
37300;DHT22;23184;51.902;12.836;2023-01-15T14:15:36;6.00;99.90
37300;DHT22;23184;51.902;12.836;2023-01-15T14:24:07;6.20;99.90
37300;DHT22;23184;51.902;12.836;2023-01-15T14:32:27;6.10;99.90
37300;DHT22;23184;51.902;12.836;2023-01-15T14:34:57;6.10;99.90
37300;DHT22;23184;51.902;12.836;2023-01-15T14:37:33;6.10;99.90
37300;DHT22;23184;51.902;12.836;2023-01-15T14:40:03;6.00;99.90
37300;DHT22;23184;51.902;12.836;2023-01-15T14:42:34;6.10;99.90
37300;DHT22;23184;51.902;12.836;2023-01-15T14:45:27;6.00;99.90
37300;DHT22;23184;51.902;12.836;2023-01-15T14:47:56;6.00;99.90
37300;DHT22;23184;51.902;12.836;2023-01-15T14:53:05;6.10;99.90
37300;DHT22;23184;51.902;12.836;2023-01-15T14:55:46;6.10;99.90
37300;DHT22;23184;51.902;12.836;2023-01-15T15:01:26;6.00;99.90
37300;DHT22;23184;51.902;12.836;2023-01-15T15:03:57;6.00;99.90
37300;DHT22;23184;51.902;12.836;2023-01-15T15:06:26;5.90;99.90
37300;DHT22;23184;51.902;12.836;2023-01-15T15:08:57;6.00;99.90
37300;DHT22;23184;51.902;12.836;2023-01-15T15:11:32;5.90;99.90
37300;DHT22;23184;51.902;12.836;2023-01-15T15:14:19;6.00;99.90
37300;DHT22;23184;51.902;12.836;2023-01-15T15:16:47;6.20;99.90
37300;DHT22;23184;51.902;12.836;2023-01-15T15:19:25;6.00;99.90
37300;DHT22;23184;51.902;12.836;2023-01-15T15:21:54;5.90;99.90
37300;DHT22;23184;51.902;12.836;2023-01-15T15:24:28;5.80;99.90
37300;DHT22;23184;51.902;12.836;2023-01-15T15:27:22;5.80;99.90
37300;DHT22;23184;51.902;12.836;2023-01-15T15:29:48;5.60;99.90
37300;DHT22;23184;51.902;12.836;2023-01-15T15:32:21;5.50;99.90
37300;DHT22;23184;51.902;12.836;2023-01-15T15:34:49;5.40;99.90
37300;DHT22;23184;51.902;12.836;2023-01-15T15:39:52;5.60;99.90
37300;DHT22;23184;51.902;12.836;2023-01-15T15:42:36;5.40;99.90
37300;DHT22;23184;51.902;12.836;2023-01-15T15:45:25;5.30;99.90
37300;DHT22;23184;51.902;12.836;2023-01-15T15:48:20;5.30;99.90
37300;DHT22;23184;51.902;12.836;2023-01-15T15:51:31;5.30;99.90
37300;DHT22;23184;51.902;12.836;2023-01-15T15:54:03;5.20;99.90
37300;DHT22;23184;51.902;12.836;2023-01-15T15:56:31;5.20;99.90
37300;DHT22;23184;51.902;12.836;2023-01-15T15:58:57;5.20;99.90
37300;DHT22;23184;51.902;12.836;2023-01-15T16:01:23;5.20;99.90
37300;DHT22;23184;51.902;12.836;2023-01-15T16:03:49;5.00;99.90
37300;DHT22;23184;51.902;12.836;2023-01-15T16:06:23;5.10;99.90
37300;DHT22;23184;51.902;12.836;2023-01-15T16:08:53;5.20;99.90
37300;DHT22;23184;51.902;12.836;2023-01-15T16:11:20;5.20;99.90
37300;DHT22;23184;51.902;12.836;2023-01-15T16:13:50;5.20;99.90
37300;DHT22;23184;51.902;12.836;2023-01-15T16:16:17;5.10;99.90
37300;DHT22;23184;51.902;12.836;2023-01-15T16:18:47;5.20;99.90
37300;DHT22;23184;51.902;12.836;2023-01-15T16:21:29;5.20;99.90
37300;DHT22;23184;51.902;12.836;2023-01-15T16:23:57;5.10;99.90
37300;DHT22;23184;51.902;12.836;2023-01-15T16:26:29;5.20;99.90
37300;DHT22;23184;51.902;12.836;2023-01-15T16:28:57;5.10;99.90
37300;DHT22;23184;51.902;12.836;2023-01-15T16:31:24;5.10;99.90
37300;DHT22;23184;51.902;12.836;2023-01-15T16:33:54;5.10;99.90
37300;DHT22;23184;51.902;12.836;2023-01-15T16:36:21;5.20;99.90
37300;DHT22;23184;51.902;12.836;2023-01-15T16:38:48;5.20;99.90
37300;DHT22;23184;51.902;12.836;2023-01-15T16:41:26;5.10;99.90
37300;DHT22;23184;51.902;12.836;2023-01-15T16:43:58;5.10;99.90
37300;DHT22;23184;51.902;12.836;2023-01-15T16:46:28;5.20;99.90
37300;DHT22;23184;51.902;12.836;2023-01-15T16:51:45;5.20;99.90
37300;DHT22;23184;51.902;12.836;2023-01-15T16:54:41;5.20;99.90
37300;DHT22;23184;51.902;12.836;2023-01-15T16:57:25;5.10;99.90
37300;DHT22;23184;51.902;12.836;2023-01-15T16:59:55;5.10;99.90
37300;DHT22;23184;51.902;12.836;2023-01-15T17:02:21;5.10;99.90
37300;DHT22;23184;51.902;12.836;2023-01-15T17:04:48;5.10;99.90
37300;DHT22;23184;51.902;12.836;2023-01-15T17:07:18;5.20;99.90
37300;DHT22;23184;51.902;12.836;2023-01-15T17:15:03;5.30;99.90
37300;DHT22;23184;51.902;12.836;2023-01-15T17:17:45;5.20;99.90
37300;DHT22;23184;51.902;12.836;2023-01-15T17:20:12;5.40;99.90
37300;DHT22;23184;51.902;12.836;2023-01-15T17:22:40;5.50;99.90
37300;DHT22;23184;51.902;12.836;2023-01-15T17:25:26;5.50;99.90
37300;DHT22;23184;51.902;12.836;2023-01-15T17:27:52;5.50;99.90
37300;DHT22;23184;51.902;12.836;2023-01-15T17:30:19;5.50;99.90
37300;DHT22;23184;51.902;12.836;2023-01-15T17:32:45;5.60;99.90
37300;DHT22;23184;51.902;12.836;2023-01-15T17:35:26;5.50;99.90
37300;DHT22;23184;51.902;12.836;2023-01-15T17:37:52;5.60;99.90
37300;DHT22;23184;51.902;12.836;2023-01-15T17:40:18;5.40;99.90